Time;durP1;ratioP1;P1;durP2;ratioP2;P2;SDS_P1;SDS_P2;PMS_P1;PMS_P2;Temp;Humidity;BMP_temperature;BMP_pressure;BME280_temperature;BME280_humidity;BME280_pressure;Samples;Min_cycle;Max_cycle;Signal;HPM_P1;HPM_P2
2023/10/17 00:01:32;;;;;;;3.80;1.90;;;;;;;;;;5110633;28;20445;-55
2023/10/17 00:04:09;;;;;;;2.30;1.80;;;;;;;;;;5106256;28;20445;-55
2023/10/17 00:06:37;;;;;;;1.93;1.60;;;;;;;;;;5114839;28;20544;-55
2023/10/17 00:09:07;;;;;;;2.10;1.43;;;;;;;;;;5105603;28;20447;-55
2023/10/17 00:11:45;;;;;;;2.50;1.87;;;;;;;;;;5113085;28;20438;-55
2023/10/17 00:14:15;;;;;;;2.57;1.57;;;;;;;;;;5112758;28;20474;-56
2023/10/17 00:16:42;;;;;;;2.70;1.23;;;;;;;;;;5114760;28;21004;-55
2023/10/17 00:19:10;;;;;;;3.57;1.90;;;;;;;;;;5114896;28;20514;-55
2023/10/17 00:21:39;;;;;;;2.10;1.43;;;;;;;;;;5110134;28;20447;-56
2023/10/17 00:24:09;;;;;;;3.83;1.87;;;;;;;;;;5108467;28;20457;-56
2023/10/17 00:26:37;;;;;;;4.03;2.07;;;;;;;;;;5114255;28;20462;-55
2023/10/17 00:29:07;;;;;;;2.33;1.47;;;;;;;;;;5113464;28;20526;-55
2023/10/17 00:31:36;;;;;;;1.90;1.30;;;;;;;;;;5110653;28;20527;-56
2023/10/17 00:34:12;;;;;;;3.50;1.90;;;;;;;;;;5108902;28;20513;-55
2023/10/17 00:36:47;;;;;;;2.50;1.90;;;;;;;;;;5111356;28;20470;-54
2023/10/17 00:39:17;;;;;;;2.10;1.40;;;;;;;;;;5113707;28;20540;-54
2023/10/17 00:41:50;;;;;;;2.03;1.50;;;;;;;;;;5113724;28;20456;-55
2023/10/17 00:44:30;;;;;;;3.40;1.40;;;;;;;;;;5114301;28;20456;-55
2023/10/17 00:46:59;;;;;;;2.47;1.60;;;;;;;;;;5113546;28;20545;-57
2023/10/17 00:49:29;;;;;;;4.30;2.50;;;;;;;;;;5113314;28;20825;-55
2023/10/17 00:51:59;;;;;;;4.50;2.90;;;;;;;;;;5110295;28;20450;-56
2023/10/17 00:54:26;;;;;;;4.73;2.77;;;;;;;;;;5111540;28;20535;-55
2023/10/17 00:56:55;;;;;;;3.17;1.63;;;;;;;;;;5113775;28;20841;-57
2023/10/17 00:59:25;;;;;;;3.23;2.20;;;;;;;;;;5112973;28;20533;-56
2023/10/17 01:01:55;;;;;;;4.00;2.10;;;;;;;;;;5111621;28;20496;-56
2023/10/17 01:04:24;;;;;;;2.47;1.80;;;;;;;;;;5107431;28;21001;-55
2023/10/17 01:06:54;;;;;;;2.57;2.07;;;;;;;;;;5113066;28;20494;-57
2023/10/17 01:09:24;;;;;;;2.50;1.73;;;;;;;;;;5113921;28;20470;-55
2023/10/17 01:11:54;;;;;;;2.97;1.40;;;;;;;;;;5113548;28;20465;-56
2023/10/17 01:14:23;;;;;;;1.67;1.43;;;;;;;;;;5112949;28;21019;-55
2023/10/17 01:16:52;;;;;;;3.10;1.73;;;;;;;;;;5107509;28;20478;-56
2023/10/17 01:19:21;;;;;;;2.10;1.30;;;;;;;;;;5113549;28;20897;-55
2023/10/17 01:21:50;;;;;;;2.10;1.70;;;;;;;;;;5106255;28;20451;-56
2023/10/17 01:24:18;;;;;;;2.47;1.90;;;;;;;;;;5106886;28;20451;-55
2023/10/17 01:26:46;;;;;;;2.07;1.30;;;;;;;;;;5112924;28;20463;-55
2023/10/17 01:29:14;;;;;;;3.13;1.60;;;;;;;;;;5108521;28;20506;-55
2023/10/17 01:31:43;;;;;;;3.40;1.60;;;;;;;;;;5107363;28;20490;-55
2023/10/17 01:34:12;;;;;;;3.20;1.40;;;;;;;;;;5112743;28;20554;-55
2023/10/17 01:36:40;;;;;;;2.00;1.30;;;;;;;;;;5109851;28;20497;-55
2023/10/17 01:39:08;;;;;;;2.20;1.20;;;;;;;;;;5111781;28;20501;-56
2023/10/17 01:41:38;;;;;;;1.63;1.17;;;;;;;;;;5113020;28;20446;-57
2023/10/17 01:44:08;;;;;;;2.77;1.47;;;;;;;;;;5110769;27;20466;-56
2023/10/17 01:46:38;;;;;;;2.20;1.40;;;;;;;;;;5113306;28;20466;-56
2023/10/17 01:49:12;;;;;;;1.70;0.90;;;;;;;;;;5111576;28;20465;-55
2023/10/17 01:51:42;;;;;;;3.37;1.80;;;;;;;;;;5104818;28;20464;-56
2023/10/17 01:54:11;;;;;;;2.30;1.57;;;;;;;;;;5107854;28;20556;-55
2023/10/17 01:56:40;;;;;;;2.20;1.67;;;;;;;;;;5106994;28;20466;-55
2023/10/17 01:59:13;;;;;;;2.90;1.40;;;;;;;;;;5112655;27;20948;-55
2023/10/17 02:01:41;;;;;;;2.67;1.43;;;;;;;;;;5109851;28;20957;-55
2023/10/17 02:04:12;;;;;;;2.10;1.50;;;;;;;;;;5112651;28;20434;-56
2023/10/17 02:06:40;;;;;;;4.03;1.70;;;;;;;;;;5112126;28;20479;-55
2023/10/17 02:09:23;;;;;;;1.87;1.10;;;;;;;;;;5113152;28;20443;-55
2023/10/17 02:11:54;;;;;;;1.93;1.10;;;;;;;;;;5112029;28;20446;-56
2023/10/17 02:14:21;;;;;;;2.90;1.40;;;;;;;;;;5111986;28;20474;-55
2023/10/17 02:16:49;;;;;;;2.67;1.40;;;;;;;;;;5108242;28;20475;-56
2023/10/17 02:19:19;;;;;;;2.73;1.20;;;;;;;;;;5111678;28;20446;-55
2023/10/17 02:21:49;;;;;;;1.70;1.00;;;;;;;;;;5111932;28;20538;-54
2023/10/17 02:24:21;;;;;;;1.83;1.20;;;;;;;;;;5111186;28;20451;-55
2023/10/17 02:26:55;;;;;;;1.70;1.20;;;;;;;;;;5112066;28;20474;-55
2023/10/17 02:29:26;;;;;;;1.97;1.10;;;;;;;;;;5112426;28;21013;-55
2023/10/17 02:31:54;;;;;;;1.90;1.13;;;;;;;;;;5112016;28;20449;-55
2023/10/17 02:34:22;;;;;;;2.70;1.73;;;;;;;;;;5111754;28;20497;-55
2023/10/17 02:36:50;;;;;;;2.57;1.50;;;;;;;;;;5111596;28;20554;-57
2023/10/17 02:39:20;;;;;;;2.33;1.20;;;;;;;;;;5111855;28;20573;-55
2023/10/17 02:41:55;;;;;;;2.00;1.30;;;;;;;;;;5107317;28;20454;-55
2023/10/17 02:44:24;;;;;;;2.37;1.37;;;;;;;;;;5110603;28;20433;-55
2023/10/17 02:46:51;;;;;;;2.20;1.50;;;;;;;;;;5112077;28;20462;-55
2023/10/17 02:49:19;;;;;;;2.30;1.60;;;;;;;;;;5111759;28;20446;-54
2023/10/17 02:51:46;;;;;;;2.33;2.13;;;;;;;;;;5105023;28;20867;-55
2023/10/17 02:54:16;;;;;;;2.10;1.67;;;;;;;;;;5110602;28;21007;-56
2023/10/17 02:56:51;;;;;;;1.93;1.67;;;;;;;;;;5111270;28;20497;-55
2023/10/17 02:59:21;;;;;;;2.27;1.97;;;;;;;;;;5111343;28;20450;-55
2023/10/17 03:01:54;;;;;;;2.63;1.63;;;;;;;;;;5111085;28;20496;-56
2023/10/17 03:04:24;;;;;;;3.50;2.17;;;;;;;;;;5108797;28;20439;-54
2023/10/17 03:06:55;;;;;;;4.00;2.20;;;;;;;;;;5111331;28;20558;-56
2023/10/17 03:09:36;;;;;;;3.43;2.00;;;;;;;;;;5111011;28;20530;-55
2023/10/17 03:12:19;;;;;;;4.10;1.70;;;;;;;;;;5111372;28;20450;-55
2023/10/17 03:17:33;;;;;;;3.47;1.70;;;;;;;;;;5109543;28;20452;-55
2023/10/17 03:19:59;;;;;;;2.57;1.40;;;;;;;;;;5111354;28;20525;-55
2023/10/17 03:22:27;;;;;;;2.57;1.60;;;;;;;;;;5111111;28;20454;-55
2023/10/17 03:25:01;;;;;;;2.00;1.30;;;;;;;;;;5109635;28;20980;-55
2023/10/17 03:27:35;;;;;;;2.30;1.60;;;;;;;;;;5111146;28;20871;-55
2023/10/17 03:30:05;;;;;;;2.60;1.77;;;;;;;;;;5110722;28;20454;-56
2023/10/17 03:32:34;;;;;;;2.23;1.40;;;;;;;;;;5105652;28;20451;-55
2023/10/17 03:35:03;;;;;;;2.10;1.60;;;;;;;;;;5110413;28;21050;-55
2023/10/17 03:37:30;;;;;;;3.00;1.90;;;;;;;;;;5110687;28;20445;-55
2023/10/17 03:40:00;;;;;;;4.33;3.17;;;;;;;;;;5106696;28;20812;-55
2023/10/17 03:42:43;;;;;;;5.70;4.13;;;;;;;;;;5104778;28;20505;-56
2023/10/17 03:45:16;;;;;;;3.13;2.40;;;;;;;;;;5109100;28;20490;-56
2023/10/17 03:47:48;;;;;;;3.43;2.23;;;;;;;;;;5111421;28;20451;-55
2023/10/17 03:50:31;;;;;;;2.77;1.80;;;;;;;;;;5106338;28;20451;-56
2023/10/17 03:53:04;;;;;;;2.70;1.73;;;;;;;;;;5107276;28;20474;-55
2023/10/17 03:55:32;;;;;;;1.90;1.37;;;;;;;;;;5105956;28;20995;-55
2023/10/17 03:57:59;;;;;;;2.30;2.10;;;;;;;;;;5110641;28;20454;-56
2023/10/17 04:00:34;;;;;;;2.40;2.03;;;;;;;;;;5111196;28;20532;-55
2023/10/17 04:03:09;;;;;;;2.40;1.70;;;;;;;;;;5108235;28;20926;-55
2023/10/17 04:05:38;;;;;;;8.10;5.60;;;;;;;;;;5110226;28;20462;-56
2023/10/17 04:08:09;;;;;;;5.30;3.80;;;;;;;;;;5108101;28;20446;-55
2023/10/17 04:10:41;;;;;;;3.17;2.00;;;;;;;;;;5109272;28;20967;-56
2023/10/17 04:13:18;;;;;;;2.30;1.80;;;;;;;;;;5105447;28;20450;-55
2023/10/17 04:15:45;;;;;;;1.90;1.60;;;;;;;;;;5110516;28;20980;-55
2023/10/17 04:18:14;;;;;;;1.90;1.57;;;;;;;;;;5110604;28;20449;-56
2023/10/17 04:20:46;;;;;;;4.80;3.27;;;;;;;;;;5105894;28;20454;-55
2023/10/17 04:23:26;;;;;;;3.23;3.03;;;;;;;;;;5098922;28;20447;-55
2023/10/17 04:25:55;;;;;;;4.87;4.03;;;;;;;;;;5098392;28;20550;-55
2023/10/17 04:28:26;;;;;;;3.90;2.97;;;;;;;;;;5099271;28;21020;-55
2023/10/17 04:30:57;;;;;;;2.27;1.97;;;;;;;;;;5098541;28;20435;-55
2023/10/17 04:33:28;;;;;;;3.10;2.40;;;;;;;;;;5099543;28;20798;-55
2023/10/17 04:36:00;;;;;;;3.33;2.83;;;;;;;;;;5098412;28;20502;-55
2023/10/17 04:38:38;;;;;;;3.13;2.70;;;;;;;;;;5098909;28;20510;-56
2023/10/17 04:41:30;;;;;;;2.80;2.10;;;;;;;;;;5097566;28;20959;-56
2023/10/17 04:44:02;;;;;;;2.50;1.50;;;;;;;;;;5100022;28;20443;-56
2023/10/17 04:46:30;;;;;;;1.83;1.53;;;;;;;;;;5096502;28;21003;-55
2023/10/17 04:49:06;;;;;;;1.97;1.63;;;;;;;;;;5100539;28;21007;-55
2023/10/17 04:51:38;;;;;;;2.00;1.63;;;;;;;;;;5103405;28;20454;-56
2023/10/17 04:54:10;;;;;;;4.43;2.50;;;;;;;;;;5103606;28;20808;-55
2023/10/17 04:56:55;;;;;;;2.67;1.80;;;;;;;;;;5102399;28;20473;-55
2023/10/17 04:59:41;;;;;;;2.90;1.40;;;;;;;;;;5102770;28;20967;-55
2023/10/17 05:02:35;;;;;;;1.63;1.10;;;;;;;;;;5111121;28;20560;-55
2023/10/17 06:16:58;;;;;;;5.10;2.40;;;;;;;;;;5032623;28;21085;-90
2023/10/17 06:19:27;;;;;;;30.03;19.23;;;;;;;;;;5031424;28;20457;-90
2023/10/17 06:30:29;;;;;;;7.63;6.10;;;;;;;;;;5031340;28;20449;-88
2023/10/17 06:35:44;;;;;;;5.93;4.50;;;;;;;;;;5029492;28;20485;-90
2023/10/17 06:38:15;;;;;;;6.27;4.33;;;;;;;;;;5033187;28;20477;-90
2023/10/17 06:40:45;;;;;;;6.03;3.20;;;;;;;;;;5032643;28;20443;-90
2023/10/17 06:43:17;;;;;;;4.63;3.30;;;;;;;;;;5033070;28;20457;-90
2023/10/17 06:45:54;;;;;;;3.03;2.70;;;;;;;;;;5032702;28;20537;-90
2023/10/17 06:48:31;;;;;;;3.63;3.30;;;;;;;;;;5033682;28;20454;-90
2023/10/17 06:53:47;;;;;;;3.30;2.37;;;;;;;;;;5029126;28;20442;-89
2023/10/17 06:56:14;;;;;;;3.93;3.53;;;;;;;;;;5033541;28;20500;-90
2023/10/17 06:58:43;;;;;;;7.80;6.40;;;;;;;;;;5033429;28;20462;-89
2023/10/17 07:01:24;;;;;;;6.20;5.20;;;;;;;;;;5033506;28;20883;-90
2023/10/17 07:03:54;;;;;;;6.60;4.87;;;;;;;;;;5032961;28;20524;-90
2023/10/17 07:06:24;;;;;;;4.93;4.47;;;;;;;;;;5033186;28;20455;-90
2023/10/17 07:08:51;;;;;;;6.47;4.60;;;;;;;;;;5038799;28;20454;-90
2023/10/17 07:11:29;;;;;;;3.83;3.43;;;;;;;;;;5032451;28;20524;-90
2023/10/17 07:14:22;;;;;;;6.40;5.57;;;;;;;;;;5031312;28;20867;-90
2023/10/17 07:16:57;;;;;;;6.13;5.50;;;;;;;;;;5031886;28;20485;-90
2023/10/17 07:22:11;;;;;;;8.80;6.30;;;;;;;;;;5029261;28;20413;-90
2023/10/17 07:24:42;;;;;;;6.97;5.30;;;;;;;;;;5031487;28;20533;-90
2023/10/17 07:27:18;;;;;;;8.47;7.63;;;;;;;;;;5030186;28;20549;-89
2023/10/17 07:29:58;;;;;;;8.37;7.47;;;;;;;;;;5030970;28;20477;-90
2023/10/17 07:32:25;;;;;;;9.43;6.67;;;;;;;;;;5026557;28;20450;-90
2023/10/17 07:34:58;;;;;;;12.30;10.37;;;;;;;;;;5030005;28;20865;-90
2023/10/17 07:37:25;;;;;;;9.43;7.23;;;;;;;;;;5025945;28;20536;-90
2023/10/17 07:42:40;;;;;;;4.53;3.10;;;;;;;;;;5042934;28;20433;-89
2023/10/17 07:45:14;;;;;;;4.80;2.93;;;;;;;;;;5035319;28;20489;-90
2023/10/17 07:47:42;;;;;;;5.33;4.83;;;;;;;;;;5031340;28;20473;-90
2023/10/17 07:50:12;;;;;;;8.77;7.97;;;;;;;;;;5031418;28;20830;-90
2023/10/17 07:52:43;;;;;;;9.57;8.50;;;;;;;;;;5031154;28;20461;-90
2023/10/17 07:55:19;;;;;;;7.73;7.03;;;;;;;;;;5029783;28;20474;-90
2023/10/17 07:57:51;;;;;;;6.03;5.40;;;;;;;;;;5030876;28;20469;-90
2023/10/17 08:00:33;;;;;;;7.70;7.00;;;;;;;;;;5031203;28;20867;-90
2023/10/17 08:03:07;;;;;;;6.83;5.80;;;;;;;;;;5030962;28;20493;-90
2023/10/17 08:05:38;;;;;;;6.77;6.07;;;;;;;;;;5031332;28;20517;-90
2023/10/17 08:08:08;;;;;;;8.90;6.80;;;;;;;;;;5031133;28;20466;-90
2023/10/17 08:10:38;;;;;;;9.43;6.70;;;;;;;;;;5031321;28;20454;-90
2023/10/17 08:13:07;;;;;;;8.57;7.10;;;;;;;;;;5030671;28;20815;-90
2023/10/17 08:15:43;;;;;;;6.33;5.70;;;;;;;;;;5029533;28;20466;-90
2023/10/17 08:18:14;;;;;;;7.30;6.50;;;;;;;;;;5028631;28;21039;-89
2023/10/17 08:21:07;;;;;;;9.23;6.93;;;;;;;;;;5030706;28;20450;-90
2023/10/17 08:23:34;;;;;;;10.63;6.57;;;;;;;;;;5032470;28;20446;-90
2023/10/17 08:26:03;;;;;;;5.60;4.63;;;;;;;;;;5034942;28;20441;-90
2023/10/17 08:28:34;;;;;;;5.90;5.30;;;;;;;;;;5031286;28;21129;-90
2023/10/17 08:31:17;;;;;;;7.97;7.00;;;;;;;;;;5028137;28;20557;-90
2023/10/17 08:33:47;;;;;;;7.37;5.10;;;;;;;;;;5031483;28;20457;-90
2023/10/17 08:36:14;;;;;;;4.03;3.60;;;;;;;;;;5034344;28;20485;-90
2023/10/17 08:38:41;;;;;;;9.10;4.60;;;;;;;;;;5034878;28;20470;-90
2023/10/17 08:41:08;;;;;;;13.03;11.63;;;;;;;;;;5034184;28;20482;-90
2023/10/17 08:43:36;;;;;;;4.30;3.80;;;;;;;;;;5034154;28;20489;-90
2023/10/17 08:46:09;;;;;;;3.07;2.50;;;;;;;;;;5034345;28;20443;-91
2023/10/17 08:48:38;;;;;;;4.83;3.73;;;;;;;;;;5034567;28;20476;-90
2023/10/17 08:51:07;;;;;;;9.37;3.80;;;;;;;;;;5032222;28;20453;-90
2023/10/17 08:53:38;;;;;;;3.30;2.10;;;;;;;;;;5034423;28;20493;-90
2023/10/17 08:56:08;;;;;;;2.83;1.80;;;;;;;;;;5032680;28;20531;-90
2023/10/17 08:58:37;;;;;;;3.33;1.87;;;;;;;;;;5034304;28;20499;-90
2023/10/17 09:01:16;;;;;;;7.80;5.97;;;;;;;;;;5032129;28;20468;-90
2023/10/17 09:03:46;;;;;;;4.70;3.17;;;;;;;;;;5031285;28;20449;-90
2023/10/17 09:06:37;;;;;;;3.50;1.60;;;;;;;;;;5033468;28;20814;-91
2023/10/17 09:09:17;;;;;;;2.87;1.90;;;;;;;;;;5034209;28;20859;-90
2023/10/17 09:12:19;;;;;;;2.00;1.40;;;;;;;;;;5033892;28;20459;-90
2023/10/17 09:14:48;;;;;;;2.43;1.33;;;;;;;;;;5031428;28;20538;-90
2023/10/17 09:17:20;;;;;;;2.50;1.40;;;;;;;;;;5033731;28;20484;-90
2023/10/17 09:19:52;;;;;;;2.10;1.90;;;;;;;;;;5032774;28;20524;-90
2023/10/17 09:22:20;;;;;;;2.03;1.57;;;;;;;;;;5033843;28;20459;-90
2023/10/17 09:24:49;;;;;;;2.07;1.60;;;;;;;;;;5034090;28;20533;-90
2023/10/17 09:27:17;;;;;;;2.93;2.00;;;;;;;;;;5055770;28;20509;-90
2023/10/17 09:29:49;;;;;;;1.93;1.67;;;;;;;;;;5035909;28;20492;-90
2023/10/17 09:32:31;;;;;;;2.63;1.40;;;;;;;;;;5033274;28;20446;-90
2023/10/17 09:35:01;;;;;;;2.97;2.07;;;;;;;;;;5032310;28;20438;-90
2023/10/17 09:37:29;;;;;;;2.80;1.87;;;;;;;;;;5033050;28;20482;-90
2023/10/17 09:39:56;;;;;;;2.30;1.77;;;;;;;;;;5033351;28;20454;-91
2023/10/17 09:42:24;;;;;;;2.23;1.93;;;;;;;;;;5030741;28;20458;-90
2023/10/17 09:44:52;;;;;;;2.30;1.70;;;;;;;;;;5033307;28;20596;-89
2023/10/17 09:47:19;;;;;;;3.20;1.90;;;;;;;;;;5037989;28;20470;-90
2023/10/17 09:49:49;;;;;;;2.43;1.90;;;;;;;;;;5035134;28;20442;-90
2023/10/17 09:52:21;;;;;;;3.10;1.53;;;;;;;;;;5035168;28;20463;-88
2023/10/17 09:54:51;;;;;;;2.30;1.50;;;;;;;;;;5035488;28;20450;-91
2023/10/17 09:57:20;;;;;;;5.17;4.17;;;;;;;;;;5034086;28;20478;-90
2023/10/17 09:59:54;;;;;;;2.40;1.80;;;;;;;;;;5037808;28;20471;-91
2023/10/17 10:02:21;;;;;;;2.10;1.80;;;;;;;;;;5052332;28;20849;-91
2023/10/17 10:04:48;;;;;;;3.27;2.40;;;;;;;;;;5035148;28;20446;-89
2023/10/17 10:07:26;;;;;;;2.50;2.03;;;;;;;;;;5034589;28;20492;-91
2023/10/17 10:09:53;;;;;;;4.90;2.80;;;;;;;;;;5032059;28;20457;-89
2023/10/17 10:12:21;;;;;;;1.77;1.53;;;;;;;;;;5032562;28;20472;-90
2023/10/17 10:14:49;;;;;;;3.77;2.07;;;;;;;;;;5033636;28;20496;-91
2023/10/17 10:17:17;;;;;;;2.27;1.60;;;;;;;;;;5033575;28;21015;-90
2023/10/17 10:20:00;;;;;;;2.60;2.10;;;;;;;;;;5031142;28;20425;-91
2023/10/17 10:22:49;;;;;;;3.20;2.07;;;;;;;;;;5030831;28;20933;-91
2023/10/17 10:25:17;;;;;;;2.40;1.87;;;;;;;;;;5030813;28;20465;-90
2023/10/17 10:27:46;;;;;;;2.33;1.70;;;;;;;;;;5030990;28;20462;-90
2023/10/17 10:30:33;;;;;;;2.20;1.80;;;;;;;;;;5032498;28;20465;-90
2023/10/17 10:33:00;;;;;;;4.13;2.90;;;;;;;;;;5032234;28;20507;-91
2023/10/17 10:35:28;;;;;;;2.40;1.73;;;;;;;;;;5031178;28;20457;-90
2023/10/17 10:37:59;;;;;;;3.30;2.30;;;;;;;;;;5033328;28;20473;-91
2023/10/17 10:40:30;;;;;;;2.83;1.93;;;;;;;;;;5032170;28;20488;-90
2023/10/17 10:42:59;;;;;;;2.20;1.50;;;;;;;;;;5031982;28;20450;-90
2023/10/17 10:45:36;;;;;;;5.07;2.10;;;;;;;;;;5030218;28;20465;-89
2023/10/17 10:48:07;;;;;;;2.90;2.20;;;;;;;;;;5032608;28;20465;-89
2023/10/17 10:50:35;;;;;;;4.10;2.07;;;;;;;;;;5032655;28;20474;-90
2023/10/17 10:53:04;;;;;;;3.57;2.50;;;;;;;;;;5031050;28;20956;-90
2023/10/17 10:55:32;;;;;;;2.10;1.70;;;;;;;;;;5029215;28;20613;-90
2023/10/17 10:58:03;;;;;;;3.20;2.20;;;;;;;;;;5031707;28;20890;-89
2023/10/17 11:00:31;;;;;;;3.27;2.00;;;;;;;;;;5033009;28;20550;-90
2023/10/17 11:03:01;;;;;;;2.47;1.90;;;;;;;;;;5032853;28;20456;-88
2023/10/17 11:05:28;;;;;;;2.30;2.10;;;;;;;;;;5033044;28;20450;-89
2023/10/17 11:08:02;;;;;;;3.50;1.87;;;;;;;;;;5034651;28;20466;-90
2023/10/17 11:10:31;;;;;;;2.50;1.80;;;;;;;;;;5029214;28;20501;-90
2023/10/17 11:12:58;;;;;;;2.67;1.80;;;;;;;;;;5031822;28;20458;-90
2023/10/17 11:15:30;;;;;;;3.53;1.70;;;;;;;;;;5025861;28;20454;-88
2023/10/17 11:18:06;;;;;;;1.90;1.40;;;;;;;;;;5029966;28;20545;-87
2023/10/17 11:20:34;;;;;;;3.60;2.00;;;;;;;;;;5026255;28;20565;-87
2023/10/17 11:23:02;;;;;;;2.83;2.20;;;;;;;;;;5031515;28;20696;-88
2023/10/17 11:25:31;;;;;;;4.90;2.00;;;;;;;;;;5031910;28;20529;-87
2023/10/17 11:28:06;;;;;;;2.43;1.50;;;;;;;;;;5031121;28;20524;-87
2023/10/17 11:30:35;;;;;;;3.00;1.97;;;;;;;;;;5028419;28;20657;-87
2023/10/17 11:33:04;;;;;;;3.10;2.60;;;;;;;;;;5031768;28;20454;-88
2023/10/17 11:35:34;;;;;;;10.83;4.20;;;;;;;;;;5031799;28;20538;-87
2023/10/17 11:38:01;;;;;;;13.77;4.00;;;;;;;;;;5053317;22;20550;-60
2023/10/17 11:40:38;;;;;;;1.97;1.43;;;;;;;;;;5049033;28;20590;-60
2023/10/17 11:43:21;;;;;;;2.37;2.00;;;;;;;;;;5049360;28;20445;-60
2023/10/17 11:45:49;;;;;;;4.60;1.80;;;;;;;;;;5047977;28;20450;-60
2023/10/17 11:48:29;;;;;;;2.83;2.00;;;;;;;;;;5047197;28;20437;-59
2023/10/17 11:51:06;;;;;;;7.23;4.97;;;;;;;;;;5049115;28;20441;-59
2023/10/17 11:53:33;;;;;;;3.20;2.17;;;;;;;;;;5049226;28;20532;-60
2023/10/17 11:56:02;;;;;;;2.47;2.20;;;;;;;;;;5049026;28;21101;-59
2023/10/17 11:58:30;;;;;;;2.90;2.50;;;;;;;;;;5048120;28;20485;-62
2023/10/17 12:00:57;;;;;;;4.20;2.07;;;;;;;;;;5049123;28;20448;-61
2023/10/17 12:03:26;;;;;;;3.87;1.90;;;;;;;;;;5048953;28;20441;-59
2023/10/17 12:05:54;;;;;;;2.20;2.00;;;;;;;;;;5049080;28;20445;-59
2023/10/17 12:08:29;;;;;;;4.60;2.43;;;;;;;;;;5049428;28;20948;-60
2023/10/17 12:10:57;;;;;;;2.53;1.57;;;;;;;;;;5048961;28;20851;-59
2023/10/17 12:13:27;;;;;;;2.50;2.23;;;;;;;;;;5048608;28;20850;-59
2023/10/17 12:15:56;;;;;;;2.77;1.90;;;;;;;;;;5048798;28;20532;-60
2023/10/17 12:18:25;;;;;;;2.60;2.10;;;;;;;;;;5049244;28;20550;-61
2023/10/17 12:20:55;;;;;;;3.47;1.93;;;;;;;;;;5048844;28;20532;-60
2023/10/17 12:23:29;;;;;;;2.27;1.97;;;;;;;;;;5048605;28;20449;-60
2023/10/17 12:25:57;;;;;;;3.30;2.73;;;;;;;;;;5048594;28;20465;-60
2023/10/17 12:28:27;;;;;;;4.03;3.03;;;;;;;;;;5047852;28;20923;-59
2023/10/17 12:30:54;;;;;;;3.80;2.40;;;;;;;;;;5047221;28;20525;-60
2023/10/17 12:33:23;;;;;;;4.17;2.00;;;;;;;;;;5048055;28;20450;-59
2023/10/17 12:35:51;;;;;;;2.70;2.50;;;;;;;;;;5048765;28;20507;-61
2023/10/17 12:38:25;;;;;;;2.70;2.20;;;;;;;;;;5065882;28;21293;-60
2023/10/17 12:40:53;;;;;;;4.20;2.50;;;;;;;;;;5068675;28;20441;-60
2023/10/17 12:43:21;;;;;;;2.93;2.17;;;;;;;;;;5068498;28;20528;-60
2023/10/17 12:45:51;;;;;;;2.17;1.87;;;;;;;;;;5069043;28;20472;-59
2023/10/17 12:48:19;;;;;;;3.87;2.27;;;;;;;;;;5069481;28;20446;-59
2023/10/17 12:50:47;;;;;;;2.53;2.20;;;;;;;;;;5069346;28;20452;-59
2023/10/17 12:53:15;;;;;;;2.73;1.97;;;;;;;;;;5069291;28;20934;-60
2023/10/17 12:55:42;;;;;;;3.50;2.27;;;;;;;;;;5069517;28;20448;-60
2023/10/17 12:58:10;;;;;;;2.40;1.70;;;;;;;;;;5069236;28;20986;-60
2023/10/17 13:00:38;;;;;;;2.53;1.90;;;;;;;;;;5069842;28;20444;-59
2023/10/17 13:03:07;;;;;;;2.87;1.93;;;;;;;;;;5067417;28;20445;-59
2023/10/17 13:05:37;;;;;;;3.00;1.90;;;;;;;;;;5065894;28;21093;-59
2023/10/17 13:08:05;;;;;;;3.30;2.20;;;;;;;;;;5068929;28;20990;-60
2023/10/17 13:10:32;;;;;;;3.37;2.43;;;;;;;;;;5072663;28;20619;-60
2023/10/17 13:13:00;;;;;;;4.97;2.10;;;;;;;;;;5072140;28;20448;-60
2023/10/17 13:15:27;;;;;;;2.93;2.20;;;;;;;;;;5072338;28;20440;-59
2023/10/17 13:17:57;;;;;;;2.67;2.00;;;;;;;;;;5071420;28;20506;-61
2023/10/17 13:20:29;;;;;;;3.90;2.67;;;;;;;;;;5072954;28;20440;-60
2023/10/17 13:22:59;;;;;;;3.40;2.10;;;;;;;;;;5072581;28;20942;-60
2023/10/17 13:25:26;;;;;;;4.43;2.80;;;;;;;;;;5071996;28;20494;-60
2023/10/17 13:27:54;;;;;;;3.67;2.97;;;;;;;;;;5072150;28;20466;-60
2023/10/17 13:30:22;;;;;;;4.93;3.30;;;;;;;;;;5072402;28;20529;-60
2023/10/17 13:32:52;;;;;;;2.73;2.53;;;;;;;;;;5071842;28;20448;-60
2023/10/17 13:35:20;;;;;;;5.40;2.37;;;;;;;;;;5072325;28;20531;-60
2023/10/17 13:37:52;;;;;;;2.50;2.20;;;;;;;;;;5072330;28;20587;-60
2023/10/17 13:40:21;;;;;;;3.80;2.73;;;;;;;;;;5072619;28;20542;-60
2023/10/17 13:42:50;;;;;;;2.27;1.70;;;;;;;;;;5072105;28;20452;-60
2023/10/17 13:45:17;;;;;;;4.37;2.30;;;;;;;;;;5072362;28;20445;-59
2023/10/17 13:47:45;;;;;;;3.20;2.40;;;;;;;;;;5072518;28;20460;-60
2023/10/17 13:50:13;;;;;;;3.13;2.13;;;;;;;;;;5072362;28;20440;-60
2023/10/17 13:52:41;;;;;;;4.33;2.47;;;;;;;;;;5071957;28;20448;-62
2023/10/17 13:55:14;;;;;;;5.33;2.77;;;;;;;;;;5072030;28;20445;-58
2023/10/17 13:57:43;;;;;;;3.10;2.40;;;;;;;;;;5072094;28;20488;-57
2023/10/17 14:00:09;;;;;;;3.10;2.30;;;;;;;;;;5072369;28;20615;-57
2023/10/17 14:02:38;;;;;;;3.27;2.30;;;;;;;;;;5070891;28;20457;-57
2023/10/17 14:05:06;;;;;;;2.90;2.60;;;;;;;;;;5071502;28;21033;-57
2023/10/17 14:07:35;;;;;;;2.90;2.10;;;;;;;;;;5071856;28;20656;-58
2023/10/17 14:10:09;;;;;;;4.50;2.60;;;;;;;;;;5071633;28;21018;-59
2023/10/17 14:12:39;;;;;;;2.53;1.80;;;;;;;;;;5072107;28;20808;-59
2023/10/17 14:15:08;;;;;;;4.60;2.73;;;;;;;;;;5071864;28;20969;-59
2023/10/17 14:17:35;;;;;;;3.23;2.43;;;;;;;;;;5070417;28;20484;-57
2023/10/17 14:20:06;;;;;;;3.90;2.70;;;;;;;;;;5070684;28;20472;-60
2023/10/17 14:22:44;;;;;;;2.40;2.13;;;;;;;;;;5071411;28;20806;-60
2023/10/17 14:25:13;;;;;;;3.30;2.40;;;;;;;;;;5070076;28;20440;-59
2023/10/17 14:27:41;;;;;;;3.63;3.00;;;;;;;;;;5071675;28;20459;-62
2023/10/17 14:30:11;;;;;;;3.47;2.53;;;;;;;;;;5071521;28;20849;-58
2023/10/17 14:32:39;;;;;;;5.90;4.10;;;;;;;;;;5070183;28;20448;-57
2023/10/17 14:35:07;;;;;;;4.67;3.90;;;;;;;;;;5070353;28;20440;-57
2023/10/17 14:37:34;;;;;;;5.60;4.60;;;;;;;;;;5070039;28;20557;-57
2023/10/17 14:40:01;;;;;;;5.50;3.97;;;;;;;;;;5070951;28;20497;-60
2023/10/17 14:42:28;;;;;;;4.00;3.60;;;;;;;;;;5070921;28;20440;-60
2023/10/17 14:44:57;;;;;;;7.23;3.47;;;;;;;;;;5070980;28;20486;-59
2023/10/17 14:47:25;;;;;;;4.60;3.00;;;;;;;;;;5064538;28;20487;-59
2023/10/17 14:49:52;;;;;;;4.30;3.27;;;;;;;;;;5070542;28;20467;-60
2023/10/17 14:52:19;;;;;;;5.37;3.33;;;;;;;;;;5069720;28;20505;-60
2023/10/17 14:54:46;;;;;;;3.50;2.97;;;;;;;;;;5070941;28;20486;-59
2023/10/17 14:57:16;;;;;;;4.10;2.80;;;;;;;;;;5069960;28;20472;-60
2023/10/17 14:59:44;;;;;;;3.97;2.83;;;;;;;;;;5070781;28;20440;-61
2023/10/17 15:02:14;;;;;;;3.83;3.40;;;;;;;;;;5069026;28;20990;-59
2023/10/17 15:04:41;;;;;;;4.80;3.23;;;;;;;;;;5071087;28;20445;-59
2023/10/17 15:07:08;;;;;;;4.00;3.30;;;;;;;;;;5070315;28;20526;-60
2023/10/17 15:09:35;;;;;;;4.60;2.70;;;;;;;;;;5070846;28;20779;-59
2023/10/17 15:12:04;;;;;;;4.60;3.10;;;;;;;;;;5070520;28;20535;-59
2023/10/17 15:14:31;;;;;;;4.43;3.20;;;;;;;;;;5070340;28;20527;-60
2023/10/17 15:16:59;;;;;;;4.50;3.20;;;;;;;;;;5070269;28;20551;-60
2023/10/17 15:19:28;;;;;;;4.10;3.20;;;;;;;;;;5070206;28;20918;-60
2023/10/17 15:21:56;;;;;;;3.83;3.20;;;;;;;;;;5069659;28;20480;-59
2023/10/17 15:24:23;;;;;;;4.00;3.13;;;;;;;;;;5070227;28;20868;-59
2023/10/17 15:26:51;;;;;;;4.40;3.17;;;;;;;;;;5070158;28;20549;-59
2023/10/17 15:29:18;;;;;;;3.67;2.50;;;;;;;;;;5068241;28;20813;-60
2023/10/17 15:31:49;;;;;;;2.63;2.30;;;;;;;;;;5070174;28;20939;-60
2023/10/17 15:34:17;;;;;;;3.77;2.70;;;;;;;;;;5070214;28;20818;-59
2023/10/17 15:36:45;;;;;;;2.33;2.00;;;;;;;;;;5070216;28;21020;-59
2023/10/17 15:39:14;;;;;;;2.80;2.00;;;;;;;;;;5070102;28;20488;-60
2023/10/17 15:41:42;;;;;;;2.40;2.10;;;;;;;;;;5070036;28;20451;-59
2023/10/17 15:44:10;;;;;;;4.17;2.53;;;;;;;;;;5069901;28;20503;-61
2023/10/17 15:46:38;;;;;;;3.60;2.00;;;;;;;;;;5069362;28;20978;-60
2023/10/17 15:49:05;;;;;;;3.80;2.20;;;;;;;;;;5064489;28;20993;-59
2023/10/17 15:51:32;;;;;;;4.13;3.70;;;;;;;;;;5060926;28;20435;-59
2023/10/17 15:54:01;;;;;;;5.27;2.50;;;;;;;;;;5061972;28;20429;-60
2023/10/17 15:56:28;;;;;;;5.03;2.80;;;;;;;;;;5061456;28;20482;-59
2023/10/17 15:58:56;;;;;;;3.60;2.80;;;;;;;;;;5065001;28;20631;-59
2023/10/17 16:01:23;;;;;;;3.20;1.93;;;;;;;;;;5065134;28;20432;-60
2023/10/17 16:03:50;;;;;;;4.13;3.10;;;;;;;;;;5062350;28;20471;-60
2023/10/17 16:06:18;;;;;;;4.20;2.40;;;;;;;;;;5064858;28;20526;-60
2023/10/17 16:08:48;;;;;;;3.20;2.50;;;;;;;;;;5068811;28;20441;-60
2023/10/17 16:11:17;;;;;;;10.73;8.43;;;;;;;;;;5068412;28;20448;-60
2023/10/17 16:13:44;;;;;;;3.67;2.90;;;;;;;;;;5066915;28;20448;-59
2023/10/17 16:16:12;;;;;;;4.20;2.20;;;;;;;;;;5069056;28;20551;-60
2023/10/17 16:18:39;;;;;;;3.13;2.10;;;;;;;;;;5069244;28;20464;-61
2023/10/17 16:21:07;;;;;;;2.60;2.03;;;;;;;;;;5066111;28;20441;-59
2023/10/17 16:23:34;;;;;;;2.17;1.83;;;;;;;;;;5067536;28;20443;-60
2023/10/17 16:26:02;;;;;;;3.40;2.20;;;;;;;;;;5069130;28;20472;-60
2023/10/17 16:28:32;;;;;;;4.30;2.20;;;;;;;;;;5068481;28;20440;-62
2023/10/17 16:30:59;;;;;;;2.43;1.73;;;;;;;;;;5069105;28;20527;-60
2023/10/17 16:33:27;;;;;;;2.00;1.70;;;;;;;;;;5069765;28;20506;-59
2023/10/17 16:36:00;;;;;;;5.80;4.23;;;;;;;;;;5074877;28;21106;-60
2023/10/17 16:38:27;;;;;;;4.80;3.70;;;;;;;;;;5073931;28;20480;-60